Time;durP1;ratioP1;P1;durP2;ratioP2;P2;SDS_P1;SDS_P2;PMS_P1;PMS_P2;Temp;Humidity;BMP_temperature;BMP_pressure;BME280_temperature;BME280_humidity;BME280_pressure;Samples;Min_cycle;Max_cycle;Signal;HPM_P1;HPM_P2
2022/07/15 00:02:02;;;;;;;9.10;1.60;;;15.50;99.90;;;;;;5002771;28;20045;-76
2022/07/15 00:04:28;;;;;;;9.02;2.03;;;15.50;99.90;;;;;;5004297;28;20026;-76
2022/07/15 00:06:53;;;;;;;8.27;2.05;;;15.60;99.90;;;;;;5001037;28;20233;-76
2022/07/15 00:09:19;;;;;;;8.32;1.50;;;15.60;99.90;;;;;;5001579;28;20113;-76
2022/07/15 00:11:45;;;;;;;6.25;1.58;;;15.60;99.90;;;;;;5002168;28;20574;-76
2022/07/15 00:14:11;;;;;;;9.77;1.65;;;15.60;99.90;;;;;;5002992;28;20033;-75
2022/07/15 00:16:36;;;;;;;11.93;2.20;;;15.60;99.90;;;;;;5003440;28;20022;-76
2022/07/15 00:19:02;;;;;;;11.15;1.83;;;15.60;99.90;;;;;;5004259;28;20072;-76
2022/07/15 00:21:28;;;;;;;6.07;1.50;;;15.70;99.90;;;;;;5003103;28;20109;-76
2022/07/15 00:23:53;;;;;;;7.10;1.20;;;15.60;99.90;;;;;;5001137;28;20038;-76
2022/07/15 00:26:20;;;;;;;5.53;1.70;;;15.60;99.90;;;;;;5003342;28;20038;-76
2022/07/15 00:28:45;;;;;;;10.63;1.73;;;15.60;99.90;;;;;;5002235;28;20030;-75
2022/07/15 00:31:11;;;;;;;8.20;1.73;;;15.70;99.90;;;;;;5001921;28;20040;-76
2022/07/15 00:33:37;;;;;;;12.40;1.88;;;15.60;99.90;;;;;;4986901;28;20133;-76
2022/07/15 00:36:02;;;;;;;9.00;1.60;;;15.60;99.90;;;;;;4999627;28;20018;-75
2022/07/15 00:38:28;;;;;;;9.95;1.83;;;15.60;99.90;;;;;;5002073;28;20206;-75
2022/07/15 00:40:54;;;;;;;8.05;1.33;;;15.60;99.90;;;;;;5002427;28;20029;-77
2022/07/15 00:43:19;;;;;;;4.57;1.10;;;15.60;99.90;;;;;;4998201;28;20104;-75
2022/07/15 00:45:46;;;;;;;7.53;1.45;;;15.50;99.90;;;;;;5001604;28;20501;-76
2022/07/15 00:48:12;;;;;;;5.43;1.08;;;15.50;99.90;;;;;;5000936;28;20494;-76
2022/07/15 00:50:38;;;;;;;6.00;1.13;;;15.50;99.90;;;;;;5000073;28;20108;-76
2022/07/15 00:53:12;;;;;;;6.57;1.35;;;15.40;99.90;;;;;;5001027;28;20026;-76
2022/07/15 00:55:42;;;;;;;7.43;1.50;;;15.30;99.90;;;;;;4985085;28;20026;-76
2022/07/15 00:58:13;;;;;;;9.57;1.50;;;15.30;99.90;;;;;;4998876;28;20025;-76
2022/07/15 01:00:41;;;;;;;6.40;1.10;;;15.30;99.90;;;;;;5000526;28;20027;-79
2022/07/15 01:03:07;;;;;;;5.18;1.20;;;15.30;99.90;;;;;;5001494;28;20017;-76
2022/07/15 01:05:33;;;;;;;7.50;1.40;;;15.30;99.90;;;;;;5001492;28;20530;-76
2022/07/15 01:07:59;;;;;;;5.40;0.95;;;15.30;99.90;;;;;;4997830;28;20069;-76
2022/07/15 01:10:25;;;;;;;7.35;1.77;;;15.30;99.90;;;;;;5000228;28;20108;-76
2022/07/15 01:12:52;;;;;;;5.88;1.35;;;15.40;99.90;;;;;;5000936;28;20030;-76
2022/07/15 01:15:19;;;;;;;6.55;1.55;;;15.40;99.90;;;;;;4995600;28;20027;-77
2022/07/15 01:17:46;;;;;;;5.22;1.83;;;15.40;99.90;;;;;;5001203;28;20179;-76
2022/07/15 01:20:13;;;;;;;6.70;1.33;;;15.40;99.90;;;;;;5001328;28;20395;-77
2022/07/15 01:22:40;;;;;;;5.18;1.30;;;15.40;99.90;;;;;;5001602;28;20454;-76
2022/07/15 01:25:06;;;;;;;8.23;1.88;;;15.40;99.90;;;;;;5000144;28;20113;-76
2022/07/15 01:27:32;;;;;;;8.77;1.42;;;15.40;99.90;;;;;;5000166;28;20153;-77
2022/07/15 01:29:59;;;;;;;9.95;1.33;;;15.40;99.90;;;;;;5001698;28;20022;-77
2022/07/15 01:32:26;;;;;;;5.35;1.58;;;15.40;99.90;;;;;;5000535;28;20035;-76
2022/07/15 01:34:52;;;;;;;10.75;1.30;;;15.40;99.90;;;;;;4999234;28;20069;-76
2022/07/15 01:37:18;;;;;;;4.50;1.00;;;15.40;99.90;;;;;;4998371;28;20101;-76
2022/07/15 01:39:44;;;;;;;5.47;1.05;;;15.40;99.90;;;;;;5000805;28;20478;-76
2022/07/15 01:42:10;;;;;;;6.13;1.55;;;15.40;99.90;;;;;;4998652;28;20037;-76
2022/07/15 01:44:35;;;;;;;6.88;1.20;;;15.30;99.90;;;;;;5002310;28;20097;-76
2022/07/15 01:47:01;;;;;;;8.02;1.67;;;15.40;99.90;;;;;;4999913;28;20088;-76
2022/07/15 01:49:31;;;;;;;7.57;1.58;;;15.30;99.90;;;;;;5000067;28;20129;-77
2022/07/15 01:51:59;;;;;;;6.00;1.17;;;15.30;99.90;;;;;;4999141;28;20061;-76
2022/07/15 01:54:28;;;;;;;5.53;1.10;;;15.40;99.90;;;;;;5001354;28;20117;-78
2022/07/15 01:56:54;;;;;;;10.35;1.52;;;15.40;99.90;;;;;;5003179;28;20026;-76
2022/07/15 01:59:24;;;;;;;8.05;1.65;;;15.40;99.90;;;;;;4985886;28;20497;-76
2022/07/15 02:01:52;;;;;;;7.88;1.40;;;15.40;99.90;;;;;;5000901;28;20057;-76
2022/07/15 02:04:19;;;;;;;3.00;0.95;;;15.40;99.90;;;;;;5001150;28;20022;-75
2022/07/15 02:06:45;;;;;;;7.50;1.42;;;15.40;99.90;;;;;;4986432;28;20088;-75
2022/07/15 02:09:12;;;;;;;7.63;1.50;;;15.40;99.90;;;;;;4997281;28;20026;-76
2022/07/15 02:11:38;;;;;;;6.72;1.27;;;15.40;99.90;;;;;;4997357;28;20033;-75
2022/07/15 02:14:04;;;;;;;4.68;1.20;;;15.30;99.90;;;;;;5001618;28;20084;-76
2022/07/15 02:16:31;;;;;;;9.02;1.30;;;15.30;99.90;;;;;;4998110;28;20028;-75
2022/07/15 02:18:57;;;;;;;3.95;1.27;;;15.30;99.90;;;;;;5000936;28;20451;-76
2022/07/15 02:21:23;;;;;;;7.45;1.00;;;15.20;99.90;;;;;;4999780;28;20441;-76
2022/07/15 02:23:49;;;;;;;4.35;1.40;;;15.10;99.90;;;;;;4983666;28;20025;-77
2022/07/15 02:26:15;;;;;;;5.78;1.42;;;15.10;99.90;;;;;;5000167;28;20128;-77
2022/07/15 02:28:42;;;;;;;5.10;1.25;;;15.10;99.90;;;;;;4999825;28;20529;-77
2022/07/15 02:31:08;;;;;;;4.57;1.30;;;15.10;99.90;;;;;;5000968;28;20038;-76
2022/07/15 02:33:34;;;;;;;9.45;1.45;;;15.10;99.90;;;;;;4983198;28;20023;-77
2022/07/15 02:35:59;;;;;;;3.47;0.95;;;15.10;99.90;;;;;;4998413;28;20105;-77
2022/07/15 02:38:25;;;;;;;6.22;0.93;;;15.00;99.90;;;;;;5000170;28;20147;-76
2022/07/15 02:40:51;;;;;;;4.35;1.10;;;15.00;99.90;;;;;;5000141;28;20482;-76
2022/07/15 02:43:17;;;;;;;11.27;1.65;;;15.00;99.90;;;;;;4999273;28;20038;-76
2022/07/15 02:45:42;;;;;;;6.13;1.25;;;15.10;99.90;;;;;;4996417;28;20053;-76
2022/07/15 02:48:09;;;;;;;7.85;1.00;;;15.10;99.90;;;;;;4999291;28;20448;-76
2022/07/15 02:50:35;;;;;;;5.13;1.17;;;15.00;99.90;;;;;;5000441;28;20049;-76
2022/07/15 02:53:04;;;;;;;5.97;1.05;;;15.00;99.90;;;;;;5001416;28;20085;-76
2022/07/15 02:55:30;;;;;;;4.93;1.08;;;15.00;99.90;;;;;;5000057;28;20033;-76
2022/07/15 02:57:56;;;;;;;8.93;1.27;;;15.00;99.90;;;;;;4982438;28;20022;-76
2022/07/15 03:00:21;;;;;;;5.97;1.20;;;15.00;99.90;;;;;;5000002;28;20076;-76
2022/07/15 03:02:48;;;;;;;5.95;1.40;;;15.00;99.90;;;;;;5000991;28;20105;-77
2022/07/15 03:05:14;;;;;;;6.97;1.85;;;15.00;99.90;;;;;;4998730;28;20502;-77
2022/07/15 03:07:40;;;;;;;2.45;1.00;;;15.00;99.90;;;;;;4997533;28;20065;-78
2022/07/15 03:10:08;;;;;;;7.93;2.05;;;15.00;99.90;;;;;;5000133;28;20053;-76
2022/07/15 03:12:34;;;;;;;4.60;1.10;;;14.90;99.90;;;;;;4998828;28;20356;-76
2022/07/15 03:15:00;;;;;;;5.50;1.42;;;15.00;99.90;;;;;;5000590;28;20034;-75
2022/07/15 03:17:26;;;;;;;3.50;0.85;;;14.90;99.90;;;;;;5002012;28;20128;-79
2022/07/15 03:19:52;;;;;;;4.97;1.10;;;15.00;99.90;;;;;;5001747;28;20109;-76
2022/07/15 03:22:18;;;;;;;9.27;1.15;;;15.00;99.90;;;;;;5002524;28;20025;-76
2022/07/15 03:24:43;;;;;;;3.92;0.70;;;15.00;99.90;;;;;;5005164;28;20034;-76
2022/07/15 03:27:09;;;;;;;5.13;1.35;;;15.10;99.90;;;;;;5002368;28;20034;-76
2022/07/15 03:29:35;;;;;;;4.93;0.90;;;15.10;99.90;;;;;;5003223;28;20099;-78
2022/07/15 03:32:02;;;;;;;3.92;0.90;;;15.10;99.90;;;;;;5000453;28;20034;-76
2022/07/15 03:34:27;;;;;;;6.55;1.10;;;15.10;99.90;;;;;;4984351;28;20088;-76
2022/07/15 03:36:53;;;;;;;10.98;2.00;;;15.10;99.90;;;;;;5003537;28;20027;-76
2022/07/15 03:39:19;;;;;;;5.20;1.30;;;15.10;99.90;;;;;;5001074;28;20049;-75
2022/07/15 03:41:46;;;;;;;6.40;0.93;;;15.10;99.90;;;;;;5003334;28;20026;-76
2022/07/15 03:44:13;;;;;;;7.82;1.23;;;15.10;99.90;;;;;;4998930;28;20021;-76
2022/07/15 03:46:39;;;;;;;5.90;1.00;;;15.10;99.90;;;;;;5001067;28;20042;-76
2022/07/15 03:49:05;;;;;;;8.57;1.10;;;15.00;99.90;;;;;;5002289;28;20037;-76
2022/07/15 03:51:32;;;;;;;7.57;1.40;;;15.00;99.90;;;;;;5000591;28;20394;-76
2022/07/15 03:53:59;;;;;;;5.10;1.13;;;15.00;99.90;;;;;;4985286;28;20041;-76
2022/07/15 03:56:25;;;;;;;10.45;1.65;;;15.00;99.90;;;;;;4998964;28;20084;-75
2022/07/15 03:58:51;;;;;;;4.38;1.30;;;15.00;99.90;;;;;;4999401;28;20540;-76
2022/07/15 04:01:17;;;;;;;6.22;1.08;;;15.00;99.90;;;;;;5000120;28;20035;-77
2022/07/15 04:03:42;;;;;;;9.00;1.48;;;15.00;99.90;;;;;;4998406;28;20390;-78
2022/07/15 04:06:08;;;;;;;5.00;1.10;;;15.00;99.90;;;;;;4999511;28;20080;-77
2022/07/15 04:08:34;;;;;;;5.55;1.17;;;15.00;99.90;;;;;;5003486;28;20038;-77
2022/07/15 04:10:59;;;;;;;3.80;0.65;;;15.00;99.90;;;;;;5000667;28;20026;-77
2022/07/15 04:13:25;;;;;;;2.60;0.93;;;15.10;99.90;;;;;;5001280;28;20027;-77
2022/07/15 04:15:51;;;;;;;4.93;1.20;;;15.10;99.90;;;;;;5003108;28;20101;-76
2022/07/15 04:18:17;;;;;;;6.05;1.67;;;15.10;99.90;;;;;;5000413;28;20034;-77
2022/07/15 04:20:43;;;;;;;4.15;1.05;;;15.10;99.90;;;;;;4997045;28;20434;-76
2022/07/15 04:23:09;;;;;;;4.70;1.10;;;15.10;99.90;;;;;;5000946;28;20033;-76
2022/07/15 04:25:35;;;;;;;8.48;1.42;;;15.20;99.90;;;;;;5004327;28;20440;-76
2022/07/15 04:28:01;;;;;;;3.28;0.80;;;15.20;99.90;;;;;;4996737;28;20034;-76
2022/07/15 04:30:27;;;;;;;8.90;1.42;;;15.20;99.90;;;;;;4996506;28;20038;-76
2022/07/15 04:32:52;;;;;;;7.43;1.63;;;15.20;99.90;;;;;;4997098;28;20036;-76
2022/07/15 04:35:18;;;;;;;11.15;1.48;;;15.30;99.90;;;;;;4983845;28;20143;-76
2022/07/15 04:37:44;;;;;;;5.20;1.00;;;15.60;99.90;;;;;;5016542;28;20026;-76
2022/07/15 04:40:11;;;;;;;7.00;0.98;;;15.50;99.90;;;;;;5001981;28;20029;-76
2022/07/15 04:42:36;;;;;;;7.32;1.27;;;15.40;99.90;;;;;;5001205;28;20201;-78
2022/07/15 04:45:03;;;;;;;4.47;1.45;;;15.40;99.90;;;;;;4999495;28;20054;-78
2022/07/15 04:47:28;;;;;;;8.38;1.63;;;15.40;99.90;;;;;;4996397;28;20113;-78
2022/07/15 04:52:45;;;;;;;6.40;1.85;;;15.40;99.90;;;;;;4992956;28;20030;-77
2022/07/15 04:55:11;;;;;;;5.78;1.38;;;15.30;99.90;;;;;;5003676;28;20026;-77
2022/07/15 04:57:36;;;;;;;10.18;2.05;;;15.40;99.90;;;;;;4994099;28;20219;-78
2022/07/15 05:00:04;;;;;;;7.03;1.83;;;15.30;99.90;;;;;;5001788;28;20030;-76
2022/07/15 05:02:30;;;;;;;5.32;1.60;;;15.40;99.90;;;;;;4998307;28;20076;-77
2022/07/15 05:04:56;;;;;;;6.55;1.40;;;15.30;99.90;;;;;;5004083;28;20402;-77
2022/07/15 05:07:22;;;;;;;5.78;1.52;;;15.40;99.90;;;;;;4997801;28;20430;-77
2022/07/15 05:09:47;;;;;;;4.88;1.73;;;15.40;99.90;;;;;;5002425;28;20030;-77
2022/07/15 05:12:13;;;;;;;7.00;1.55;;;15.40;99.90;;;;;;5004995;28;20030;-76
2022/07/15 05:14:40;;;;;;;5.65;1.40;;;15.40;99.90;;;;;;5000163;28;20034;-75
2022/07/15 05:17:09;;;;;;;11.15;1.63;;;15.40;99.90;;;;;;5004569;28;20026;-76
2022/07/15 05:19:35;;;;;;;9.07;1.58;;;15.50;99.90;;;;;;5006239;28;20095;-77
2022/07/15 05:22:01;;;;;;;5.10;1.08;;;15.50;99.90;;;;;;5000135;28;20057;-79
2022/07/15 05:24:27;;;;;;;11.73;1.33;;;15.40;99.90;;;;;;5004116;28;20022;-75
2022/07/15 05:26:53;;;;;;;6.85;1.33;;;15.40;99.90;;;;;;5001537;28;20045;-77
2022/07/15 05:29:21;;;;;;;10.95;1.88;;;15.40;99.90;;;;;;5005700;28;20037;-78
2022/07/15 05:31:48;;;;;;;7.88;1.30;;;15.40;99.90;;;;;;5022574;28;20237;-79
2022/07/15 05:34:14;;;;;;;7.75;1.63;;;15.30;99.90;;;;;;5025658;28;20026;-81
2022/07/15 05:36:40;;;;;;;8.70;1.52;;;15.40;99.90;;;;;;5017133;28;20125;-77
2022/07/15 05:39:06;;;;;;;9.63;2.00;;;15.30;99.90;;;;;;5002878;28;20109;-79
2022/07/15 05:41:32;;;;;;;7.30;1.65;;;15.30;99.90;;;;;;5002059;28;20428;-77
2022/07/15 05:43:58;;;;;;;13.32;1.33;;;15.20;99.90;;;;;;5000157;28;20080;-80
2022/07/15 05:46:24;;;;;;;6.18;1.60;;;15.10;99.90;;;;;;5002350;28;20045;-78
2022/07/15 05:48:49;;;;;;;4.32;1.25;;;15.00;99.90;;;;;;5000250;28;20117;-77
2022/07/15 05:51:15;;;;;;;5.68;1.20;;;15.00;99.90;;;;;;5002293;28;20045;-77
2022/07/15 05:53:41;;;;;;;6.78;1.58;;;15.10;99.90;;;;;;4999940;28;20022;-77
2022/07/15 05:56:07;;;;;;;8.07;1.63;;;15.10;99.90;;;;;;5001458;28;20055;-76
2022/07/15 05:58:33;;;;;;;10.70;1.13;;;15.30;99.90;;;;;;4998152;28;20030;-77
2022/07/15 06:00:58;;;;;;;9.27;2.13;;;15.40;99.90;;;;;;5000084;28;20125;-77
2022/07/15 06:03:24;;;;;;;5.63;1.38;;;15.40;99.90;;;;;;5002343;28;20034;-76
2022/07/15 06:05:50;;;;;;;2.97;1.00;;;15.50;99.90;;;;;;4998976;28;20068;-76
2022/07/15 06:08:15;;;;;;;8.25;1.27;;;15.60;99.90;;;;;;4999863;28;20052;-76
2022/07/15 06:10:42;;;;;;;8.85;1.45;;;15.60;99.90;;;;;;4998619;28;20058;-76
2022/07/15 06:13:08;;;;;;;6.97;1.65;;;15.60;99.90;;;;;;4999824;28;20018;-77
2022/07/15 06:15:34;;;;;;;3.92;1.05;;;15.60;99.90;;;;;;4999890;28;20043;-77
2022/07/15 06:17:59;;;;;;;5.72;1.73;;;15.60;99.90;;;;;;4999870;28;20455;-77
2022/07/15 06:20:25;;;;;;;5.60;1.48;;;15.60;99.90;;;;;;5002200;28;20022;-77
2022/07/15 06:22:51;;;;;;;6.13;1.80;;;15.70;99.90;;;;;;4997679;28;20069;-77
2022/07/15 06:25:17;;;;;;;8.38;1.95;;;15.70;99.90;;;;;;4999720;28;20014;-77
2022/07/15 06:27:43;;;;;;;10.27;1.58;;;15.70;99.90;;;;;;5000541;28;20045;-77
2022/07/15 06:30:09;;;;;;;9.50;1.50;;;15.70;99.90;;;;;;5000215;28;20033;-77
2022/07/15 06:32:35;;;;;;;8.55;1.10;;;15.90;99.90;;;;;;5002579;28;20616;-77
2022/07/15 06:35:02;;;;;;;6.10;1.40;;;15.90;99.90;;;;;;4998776;28;20367;-76
2022/07/15 06:37:28;;;;;;;4.95;1.25;;;15.90;99.90;;;;;;5000196;28;20036;-76
2022/07/15 06:39:54;;;;;;;9.73;1.30;;;16.00;99.90;;;;;;4997499;28;20023;-77
2022/07/15 06:42:21;;;;;;;5.30;1.35;;;16.00;99.90;;;;;;5000393;28;20030;-77
2022/07/15 06:44:47;;;;;;;8.48;1.40;;;16.00;99.90;;;;;;4998626;28;20033;-77
2022/07/15 06:47:13;;;;;;;6.57;1.50;;;16.10;99.90;;;;;;5001135;28;20498;-79
2022/07/15 06:49:39;;;;;;;8.07;2.05;;;16.20;99.90;;;;;;5001045;28;20034;-77
2022/07/15 06:52:05;;;;;;;9.95;2.08;;;16.10;99.90;;;;;;5001366;28;20042;-77
2022/07/15 06:54:31;;;;;;;3.67;1.20;;;16.20;99.90;;;;;;4999775;28;20029;-77
2022/07/15 06:56:57;;;;;;;12.80;1.65;;;16.20;99.90;;;;;;4998102;28;20026;-75
2022/07/15 06:59:23;;;;;;;4.00;1.13;;;16.20;99.90;;;;;;4982453;28;20360;-76
2022/07/15 07:01:49;;;;;;;5.72;1.13;;;16.30;99.90;;;;;;4985954;28;20565;-76
2022/07/15 07:04:15;;;;;;;7.25;1.30;;;16.30;99.90;;;;;;4984026;28;20032;-76
2022/07/15 07:06:41;;;;;;;4.32;1.50;;;16.30;99.90;;;;;;5000296;28;20101;-76
2022/07/15 07:09:07;;;;;;;9.48;1.40;;;16.20;99.90;;;;;;4999896;28;20397;-76
2022/07/15 07:11:33;;;;;;;3.28;1.52;;;16.20;99.90;;;;;;4998522;28;20049;-76
2022/07/15 07:13:59;;;;;;;6.30;1.20;;;16.20;99.90;;;;;;5000524;28;20486;-77
2022/07/15 07:16:25;;;;;;;7.63;1.35;;;16.30;99.90;;;;;;5001201;28;20088;-75
2022/07/15 07:18:51;;;;;;;7.25;1.92;;;16.20;99.90;;;;;;4998759;28;20026;-76
2022/07/15 07:21:18;;;;;;;5.82;1.73;;;16.20;99.90;;;;;;5000095;28;20026;-76
2022/07/15 07:23:44;;;;;;;6.55;1.75;;;16.20;99.90;;;;;;4997569;28;20564;-76
2022/07/15 07:26:11;;;;;;;12.82;2.88;;;16.10;99.90;;;;;;4996912;28;20432;-75
2022/07/15 07:28:40;;;;;;;6.95;1.42;;;16.10;99.90;;;;;;4984177;28;20026;-76
2022/07/15 07:31:11;;;;;;;5.07;1.23;;;16.00;99.90;;;;;;4998692;28;20510;-78
2022/07/15 07:33:37;;;;;;;10.40;1.20;;;16.00;99.90;;;;;;4999455;28;20459;-77
2022/07/15 07:36:05;;;;;;;7.03;1.55;;;16.00;99.90;;;;;;4980010;28;20437;-77
2022/07/15 07:38:32;;;;;;;12.15;1.60;;;16.20;99.90;;;;;;5000563;28;20029;-76
2022/07/15 07:40:57;;;;;;;7.85;1.95;;;16.30;99.90;;;;;;5000117;28;20026;-77
2022/07/15 07:43:23;;;;;;;3.80;1.02;;;16.50;99.90;;;;;;5003894;28;20509;-77
2022/07/15 07:45:50;;;;;;;6.70;1.20;;;16.50;99.90;;;;;;5000353;28;20035;-77
2022/07/15 07:48:19;;;;;;;3.65;1.23;;;16.70;99.90;;;;;;5001065;28;20023;-76
2022/07/15 07:50:45;;;;;;;5.35;1.08;;;16.70;99.90;;;;;;4998586;28;20542;-76
2022/07/15 07:53:11;;;;;;;6.43;1.00;;;16.70;99.90;;;;;;5001234;28;20534;-76
2022/07/15 07:55:38;;;;;;;5.07;1.33;;;16.70;99.90;;;;;;4998608;28;20026;-76
2022/07/15 07:58:04;;;;;;;5.57;1.20;;;16.70;99.90;;;;;;4999515;28;20086;-76
2022/07/15 08:00:31;;;;;;;2.65;0.90;;;16.60;99.90;;;;;;4980826;28;20023;-75
2022/07/15 08:02:59;;;;;;;6.35;1.20;;;16.60;99.90;;;;;;5000528;28;20482;-78
2022/07/15 08:05:26;;;;;;;5.68;1.63;;;16.60;99.90;;;;;;4995540;28;20092;-76
2022/07/15 08:08:05;;;;;;;6.75;1.38;;;16.50;99.90;;;;;;5002733;28;20033;-76
2022/07/15 08:10:31;;;;;;;8.48;1.35;;;16.50;99.90;;;;;;5017234;28;20023;-77
2022/07/15 08:12:57;;;;;;;7.53;1.67;;;16.40;99.90;;;;;;5002095;28;20097;-76
2022/07/15 08:15:22;;;;;;;8.35;1.67;;;16.40;99.90;;;;;;5004151;28;20018;-77
2022/07/15 08:17:48;;;;;;;6.25;1.15;;;16.30;99.90;;;;;;5000119;28;20379;-76
2022/07/15 08:20:14;;;;;;;5.38;0.90;;;16.20;99.90;;;;;;5001567;28;20025;-77
2022/07/15 08:22:39;;;;;;;4.13;0.90;;;16.10;99.90;;;;;;5002668;28;20482;-77
2022/07/15 08:25:06;;;;;;;6.47;1.30;;;16.10;99.90;;;;;;5003553;28;20069;-77
2022/07/15 08:27:31;;;;;;;3.10;0.60;;;16.10;99.90;;;;;;5000852;28;20453;-78
2022/07/15 08:29:59;;;;;;;6.68;0.90;;;16.20;99.90;;;;;;5004258;28;20030;-77
2022/07/15 08:32:24;;;;;;;8.13;1.02;;;16.30;99.90;;;;;;5001860;28;20103;-76
2022/07/15 08:34:50;;;;;;;5.25;1.15;;;16.40;99.90;;;;;;5006231;28;20386;-78
2022/07/15 08:37:16;;;;;;;3.30;1.45;;;16.40;99.90;;;;;;5003620;28;20019;-77
2022/07/15 08:39:42;;;;;;;7.43;1.48;;;16.40;99.90;;;;;;5005265;28;20026;-79
2022/07/15 08:42:07;;;;;;;5.85;1.42;;;16.40;99.90;;;;;;5004066;28;20105;-77
2022/07/15 08:44:36;;;;;;;4.68;0.70;;;16.40;99.90;;;;;;5005483;28;20052;-77
2022/07/15 08:47:05;;;;;;;6.35;1.45;;;16.60;99.90;;;;;;5003627;28;20022;-78
2022/07/15 08:49:32;;;;;;;3.58;0.90;;;16.60;99.90;;;;;;5003059;28;20034;-76
2022/07/15 08:52:00;;;;;;;4.60;0.90;;;16.60;99.90;;;;;;5003595;28;20460;-79
2022/07/15 08:54:26;;;;;;;4.82;1.17;;;16.80;99.90;;;;;;5001598;28;20073;-78
2022/07/15 08:56:52;;;;;;;4.63;1.00;;;17.00;99.90;;;;;;5002930;28;20027;-78
2022/07/15 08:59:18;;;;;;;6.43;1.05;;;17.00;99.90;;;;;;5003797;28;20118;-77
2022/07/15 09:01:46;;;;;;;3.50;0.88;;;17.20;99.90;;;;;;5003855;28;20026;-78
2022/07/15 09:04:12;;;;;;;2.67;0.70;;;17.20;99.90;;;;;;5003116;28;20101;-78
2022/07/15 09:06:40;;;;;;;4.60;0.80;;;17.30;99.90;;;;;;5000817;28;20434;-77
2022/07/15 09:09:32;;;;;;;3.97;0.55;;;17.50;99.90;;;;;;5002151;28;20056;-76
2022/07/15 09:11:59;;;;;;;2.25;0.60;;;17.80;99.90;;;;;;5002022;28;20113;-77
2022/07/15 09:14:28;;;;;;;5.72;0.70;;;17.90;99.90;;;;;;5000662;28;20022;-77
2022/07/15 09:17:12;;;;;;;5.68;0.90;;;17.70;99.90;;;;;;5003300;28;20029;-75
2022/07/15 09:20:03;;;;;;;3.88;1.17;;;17.40;99.90;;;;;;4999077;28;20037;-79
2022/07/15 09:22:31;;;;;;;;;;;17.30;99.90;;;;;;5000046;28;20117;-77
2022/07/15 09:25:09;;;;;;;5.90;0.90;;;17.20;99.90;;;;;;5002069;28;19921;-77
2022/07/15 09:27:37;;;;;;;3.42;0.80;;;17.50;99.90;;;;;;5001598;28;20228;-77
2022/07/15 09:36:06;;;;;;;2.95;0.60;;;17.60;99.90;;;;;;5001262;28;20037;-76
2022/07/15 09:38:41;;;;;;;5.05;1.00;;;17.70;99.90;;;;;;5001955;28;20029;-77
2022/07/15 09:41:09;;;;;;;3.45;0.80;;;17.70;99.90;;;;;;5000681;28;20076;-77
2022/07/15 09:44:10;;;;;;;3.00;1.00;;;17.70;99.90;;;;;;5002358;28;20042;-78
2022/07/15 09:46:43;;;;;;;3.65;0.70;;;17.70;99.90;;;;;;4999236;28;20094;-77
2022/07/15 09:49:14;;;;;;;4.05;0.80;;;17.80;99.90;;;;;;5001515;28;20041;-77
2022/07/15 09:51:43;;;;;;;;;;;17.90;99.90;;;;;;5000363;28;20032;-77
2022/07/15 09:54:12;;;;;;;3.85;0.80;;;18.00;99.90;;;;;;5017268;28;19919;-76
2022/07/15 09:56:38;;;;;;;6.80;1.27;;;18.10;99.90;;;;;;5002245;28;20029;-78
2022/07/15 09:59:04;;;;;;;3.15;0.60;;;18.20;99.90;;;;;;5003333;28;20057;-76
2022/07/15 10:01:30;;;;;;;4.82;0.90;;;18.10;99.90;;;;;;5008303;28;20058;-76
2022/07/15 10:03:57;;;;;;;5.68;1.35;;;18.10;99.90;;;;;;4994884;28;20097;-79
2022/07/15 10:06:27;;;;;;;3.67;0.80;;;18.40;99.90;;;;;;5002125;28;20493;-76
2022/07/15 10:08:53;;;;;;;2.47;0.70;;;18.40;99.20;;;;;;5002732;28;20065;-77
2022/07/15 10:11:20;;;;;;;5.03;0.80;;;18.30;98.40;;;;;;4999412;28;20076;-78
2022/07/15 10:14:17;;;;;;;4.57;0.70;;;18.30;99.30;;;;;;5000881;28;20109;-79
2022/07/15 10:16:56;;;;;;;4.30;1.02;;;18.60;99.30;;;;;;4998504;28;20393;-76
2022/07/15 10:19:56;;;;;;;1.80;0.50;;;18.80;97.70;;;;;;5000544;28;20018;-77
2022/07/15 10:22:42;;;;;;;2.03;0.88;;;19.00;96.30;;;;;;5015839;28;20038;-77
2022/07/15 10:25:15;;;;;;;3.13;0.90;;;19.00;94.90;;;;;;5004181;28;20038;-77
2022/07/15 10:27:59;;;;;;;3.03;0.85;;;19.00;95.00;;;;;;5016931;28;20045;-79
2022/07/15 10:30:24;;;;;;;1.70;0.70;;;18.90;94.80;;;;;;5001220;28;20453;-77
2022/07/15 10:33:10;;;;;;;3.50;0.65;;;18.90;94.80;;;;;;5000586;28;20026;-78
2022/07/15 10:35:52;;;;;;;3.25;0.93;;;18.90;94.50;;;;;;5001350;28;20038;-77
2022/07/15 10:38:24;;;;;;;4.38;0.80;;;19.00;94.70;;;;;;4998848;28;20028;-78
2022/07/15 10:41:06;;;;;;;2.15;0.70;;;19.10;93.70;;;;;;4982573;28;20030;-77
2022/07/15 10:43:52;;;;;;;3.25;0.50;;;19.20;94.00;;;;;;5000700;28;20091;-77
2022/07/15 10:46:19;;;;;;;4.97;0.90;;;19.20;93.40;;;;;;4982540;28;20050;-80
2022/07/15 10:48:57;;;;;;;8.80;0.85;;;19.30;93.00;;;;;;5000619;28;20030;-76
2022/07/15 10:51:35;;;;;;;2.38;0.50;;;19.40;92.40;;;;;;4998860;28;20037;-77
2022/07/15 10:54:09;;;;;;;4.05;0.60;;;19.50;91.70;;;;;;4984180;28;20018;-79
2022/07/15 10:56:47;;;;;;;3.50;0.50;;;19.50;91.60;;;;;;5008583;28;20037;-78
2022/07/15 10:59:15;;;;;;;3.38;0.70;;;19.60;92.30;;;;;;5028719;28;20026;-79
2022/07/15 11:02:09;;;;;;;3.10;0.60;;;19.70;91.90;;;;;;5013613;28;20025;-78
2022/07/15 11:04:36;;;;;;;2.55;0.60;;;19.80;92.70;;;;;;5006411;28;20117;-77
2022/07/15 11:07:02;;;;;;;2.33;0.43;;;19.80;92.30;;;;;;5001983;28;20034;-76
2022/07/15 11:09:50;;;;;;;4.07;0.93;;;19.80;92.30;;;;;;5002270;28;20034;-77
2022/07/15 11:12:19;;;;;;;1.60;0.60;;;19.90;92.70;;;;;;5001120;28;20026;-77
2022/07/15 11:14:52;;;;;;;1.02;0.47;;;20.00;92.80;;;;;;4997214;28;20056;-77
2022/07/15 11:17:28;;;;;;;1.95;0.57;;;20.10;92.30;;;;;;4998870;28;20014;-77
2022/07/15 11:20:21;;;;;;;5.32;0.90;;;20.30;92.00;;;;;;5000219;28;20044;-78
2022/07/15 11:22:49;;;;;;;4.00;0.65;;;20.60;91.40;;;;;;4996321;28;20493;-76
2022/07/15 11:25:23;;;;;;;2.97;0.60;;;20.50;90.70;;;;;;4999764;28;20057;-77
2022/07/15 11:28:07;;;;;;;1.45;0.52;;;20.20;91.30;;;;;;5000554;28;20025;-76
2022/07/15 11:30:41;;;;;;;2.97;0.73;;;20.20;91.60;;;;;;4980506;28;20076;-77
2022/07/15 11:33:12;;;;;;;6.78;0.95;;;20.40;91.10;;;;;;4998838;28;20429;-77
2022/07/15 11:35:50;;;;;;;3.88;0.98;;;20.30;91.30;;;;;;4999487;28;20097;-78
2022/07/15 11:38:17;;;;;;;5.22;0.98;;;20.50;91.50;;;;;;4999115;28;20069;-78
2022/07/15 11:46:16;;;;;;;4.07;0.80;;;20.20;91.10;;;;;;4999934;28;20382;-78
2022/07/15 11:48:41;;;;;;;4.35;0.70;;;19.70;92.30;;;;;;5000677;28;20319;-79
2022/07/15 11:51:09;;;;;;;2.58;0.50;;;19.70;92.20;;;;;;5000982;28;20029;-77
2022/07/15 11:53:44;;;;;;;3.47;0.70;;;20.00;92.00;;;;;;4985877;28;20042;-77
2022/07/15 11:56:12;;;;;;;3.45;0.65;;;20.20;91.80;;;;;;5003077;28;20498;-77
2022/07/15 11:58:40;;;;;;;3.92;1.08;;;20.10;91.20;;;;;;5003390;28;20085;-77
2022/07/15 12:01:12;;;;;;;5.88;1.00;;;19.90;91.70;;;;;;5001272;28;20068;-77
2022/07/15 12:03:41;;;;;;;250.48;186.02;;;19.70;92.20;;;;;;5004180;28;20088;-77
2022/07/15 12:06:25;;;;;;;497.83;363.85;;;19.50;91.60;;;;;;5003929;28;20031;-78
2022/07/15 12:08:57;;;;;;;400.17;308.42;;;19.20;91.50;;;;;;5007157;28;20601;-76
2022/07/15 12:11:30;;;;;;;173.75;123.47;;;18.90;92.80;;;;;;5006916;28;20014;-79
2022/07/15 12:14:11;;;;;;;3.30;1.67;;;19.00;94.10;;;;;;5001993;28;20046;-77
2022/07/15 12:16:41;;;;;;;;;;;19.40;94.10;;;;;;5003601;28;20029;-77
2022/07/15 12:19:18;;;;;;;1.98;0.70;;;19.60;92.80;;;;;;4983357;28;20385;-76
2022/07/15 12:21:46;;;;;;;5.07;0.90;;;19.60;93.10;;;;;;5000364;28;20057;-76
2022/07/15 12:24:17;;;;;;;2.35;0.80;;;19.50;92.90;;;;;;5002457;28;20053;-77
2022/07/15 12:26:49;;;;;;;6.07;0.60;;;19.40;93.30;;;;;;5001593;28;20445;-76
2022/07/15 12:29:17;;;;;;;4.85;0.63;;;19.60;93.30;;;;;;5017205;28;20041;-76
2022/07/15 12:31:43;;;;;;;4.80;0.80;;;19.90;92.20;;;;;;5000158;28;20093;-77
2022/07/15 12:34:09;;;;;;;5.18;0.82;;;19.80;92.30;;;;;;5003570;28;20048;-78
2022/07/15 12:36:38;;;;;;;3.45;0.95;;;19.60;92.70;;;;;;5000522;28;20057;-78
2022/07/15 12:39:08;;;;;;;6.57;1.23;;;19.50;93.50;;;;;;4982346;28;20030;-78
2022/07/15 12:41:37;;;;;;;4.63;0.90;;;19.60;93.70;;;;;;5002428;28;20494;-77
2022/07/15 12:44:04;;;;;;;4.90;0.70;;;19.80;93.70;;;;;;5002198;28;20064;-76
2022/07/15 12:46:49;;;;;;;3.85;0.80;;;20.10;93.20;;;;;;5001117;28;20432;-78
2022/07/15 12:49:37;;;;;;;3.00;0.60;;;21.20;92.50;;;;;;5019288;28;20410;-78
2022/07/15 12:52:12;;;;;;;6.18;0.90;;;22.50;90.80;;;;;;5003478;28;20025;-78
2022/07/15 12:54:38;;;;;;;4.07;1.00;;;23.60;90.40;;;;;;5003538;28;20042;-77
2022/07/15 12:57:04;;;;;;;4.05;0.68;;;24.50;83.70;;;;;;5006529;28;20524;-78
2022/07/15 12:59:29;;;;;;;5.18;1.00;;;24.40;80.30;;;;;;5003394;28;20018;-78
2022/07/15 13:02:05;;;;;;;5.70;1.33;;;24.30;78.60;;;;;;5002436;28;20037;-77
2022/07/15 13:04:31;;;;;;;2.13;0.60;;;24.70;76.60;;;;;;4997266;28;20026;-78
2022/07/15 13:06:56;;;;;;;3.95;0.70;;;24.00;76.20;;;;;;4999144;28;20556;-76